Henley, Missouri
Current Conditions -  °F | °C
As of 10:53 PM on Wednesday 17 Dec 2014 (Local Time) from KJEF Reporting Station
Overcast Overcast  
Wind Chill: 34°   Ceiling: 7500
Heat Index: 34°   Visibility: 10mi
Dew Point: 25°   Wind: 3mph
Humidity: 70%   Direction: 80°E
Pressure: 30.29"   Gusts: NA
Location:  38.34°N, 92.32°W
Report Text: KJEF 180453Z AUTO 08003KT 10SM OVC075 01/M04 A3029 RMK AO2 SLP253 T00111039
Loading
Personal Weather Stations






























Interactive Weather Map New forecast layout! Learn more

10-Day Weather Forecast

Advertisements
Track Severe Weather on mobile